Time;durP1;ratioP1;P1;durP2;ratioP2;P2;SDS_P1;SDS_P2;PMS_P1;PMS_P2;Temp;Humidity;BMP_temperature;BMP_pressure;BME280_temperature;BME280_humidity;BME280_pressure;Samples;Min_cycle;Max_cycle;Signal;HPM_P1;HPM_P2
2023/01/01 00:00:23;;;;;;;8.53;6.90;;;15.70;99.90;;;;;;5012484;28;20562;-63
2023/01/01 00:02:49;;;;;;;6.77;6.13;;;15.70;99.90;;;;;;5012142;28;20267;-64
2023/01/01 00:05:14;;;;;;;5.60;5.10;;;15.70;99.90;;;;;;5010937;28;20207;-64
2023/01/01 00:07:40;;;;;;;10.07;5.47;;;15.70;99.90;;;;;;5012791;28;20222;-64
2023/01/01 00:12:50;;;;;;;7.63;5.13;;;15.70;99.90;;;;;;5009886;28;20195;-64
2023/01/01 00:15:16;;;;;;;5.70;4.90;;;15.70;99.90;;;;;;5012360;28;20215;-64
2023/01/01 00:17:42;;;;;;;6.80;6.27;;;15.80;99.90;;;;;;5012615;28;20180;-64
2023/01/01 00:20:08;;;;;;;7.07;5.60;;;15.80;99.90;;;;;;5012221;28;20234;-64
2023/01/01 00:22:34;;;;;;;5.47;4.93;;;15.80;99.90;;;;;;5003007;28;20662;-64
2023/01/01 00:24:59;;;;;;;5.13;4.67;;;15.70;99.90;;;;;;4992863;28;20227;-64
2023/01/01 00:27:25;;;;;;;5.50;5.00;;;15.70;99.90;;;;;;4992958;28;20653;-63
2023/01/01 00:29:50;;;;;;;4.73;4.33;;;15.70;99.90;;;;;;4995104;28;20184;-63
2023/01/01 00:32:16;;;;;;;4.90;4.47;;;15.60;99.90;;;;;;5011654;28;20191;-63
2023/01/01 00:34:42;;;;;;;5.00;4.70;;;15.50;99.90;;;;;;5012214;28;20269;-63
2023/01/01 00:37:07;;;;;;;5.13;4.73;;;15.40;99.90;;;;;;5012348;28;20187;-63
2023/01/01 00:39:33;;;;;;;4.43;4.03;;;15.30;99.90;;;;;;5012203;28;20515;-63
2023/01/01 00:41:58;;;;;;;5.70;4.50;;;15.20;99.90;;;;;;5012698;28;20267;-63
2023/01/01 00:44:24;;;;;;;4.37;4.07;;;15.10;99.90;;;;;;5012173;28;20705;-63
2023/01/01 00:46:49;;;;;;;4.53;4.33;;;15.10;99.90;;;;;;5012191;28;20188;-63
2023/01/01 00:49:15;;;;;;;4.07;3.77;;;15.00;99.90;;;;;;4999707;28;20184;-64
2023/01/01 00:51:40;;;;;;;4.53;4.23;;;15.00;99.90;;;;;;4992635;28;20590;-64
2023/01/01 00:54:06;;;;;;;4.77;4.40;;;15.00;99.90;;;;;;5006003;28;20212;-63
2023/01/01 00:56:32;;;;;;;4.20;3.90;;;15.00;99.90;;;;;;5012052;28;20246;-64
2023/01/01 00:58:57;;;;;;;4.30;4.10;;;15.00;99.90;;;;;;5010857;28;20238;-64
2023/01/01 01:01:23;;;;;;;10.43;9.93;;;15.00;99.90;;;;;;5011753;28;20216;-63
2023/01/01 01:03:49;;;;;;;6.27;4.13;;;15.00;99.90;;;;;;5011812;28;20287;-63
2023/01/01 01:06:16;;;;;;;4.23;3.93;;;15.00;99.90;;;;;;5011905;28;20619;-64
2023/01/01 01:08:44;;;;;;;3.90;3.67;;;15.00;99.90;;;;;;5012220;28;20176;-64
2023/01/01 01:11:22;;;;;;;4.83;4.53;;;15.00;99.90;;;;;;5011629;28;20230;-63
2023/01/01 01:13:49;;;;;;;4.10;3.80;;;14.90;99.90;;;;;;5011659;28;20234;-64
2023/01/01 01:16:23;;;;;;;4.60;4.20;;;14.90;99.90;;;;;;5012010;28;20164;-64
2023/01/01 01:18:53;;;;;;;5.40;5.00;;;14.80;99.90;;;;;;5011946;28;20172;-63
2023/01/01 01:21:21;;;;;;;5.73;5.20;;;14.70;99.90;;;;;;5011243;28;20533;-63
2023/01/01 01:26:27;;;;;;;5.03;4.50;;;14.60;99.90;;;;;;5010014;28;20197;-65
2023/01/01 01:28:53;;;;;;;5.60;5.20;;;14.50;99.90;;;;;;5007871;28;20172;-66
2023/01/01 01:31:20;;;;;;;5.10;4.67;;;14.40;99.90;;;;;;5010982;28;20176;-65
2023/01/01 01:33:46;;;;;;;5.23;4.70;;;14.30;99.90;;;;;;5011585;28;20235;-65
2023/01/01 01:36:13;;;;;;;4.73;4.33;;;14.30;99.90;;;;;;5011595;28;20168;-66
2023/01/01 01:38:39;;;;;;;5.07;4.70;;;14.20;99.90;;;;;;5011589;28;20559;-65
2023/01/01 01:41:06;;;;;;;5.80;4.70;;;14.10;99.90;;;;;;5011233;28;20172;-66
2023/01/01 01:43:31;;;;;;;3.90;3.70;;;14.00;99.90;;;;;;5014822;28;20172;-65
2023/01/01 01:46:11;;;;;;;4.33;4.03;;;14.00;99.90;;;;;;5015390;28;20199;-65
2023/01/01 01:48:41;;;;;;;4.13;3.83;;;13.90;99.90;;;;;;5015648;28;20168;-66
2023/01/01 01:51:08;;;;;;;4.60;4.37;;;13.90;99.90;;;;;;4995278;28;20541;-66
2023/01/01 01:53:38;;;;;;;4.00;3.80;;;14.00;99.90;;;;;;4995693;28;20247;-65
2023/01/01 01:56:09;;;;;;;5.13;4.63;;;14.00;99.90;;;;;;4995627;28;20185;-66
2023/01/01 01:58:35;;;;;;;4.30;4.00;;;14.10;99.90;;;;;;4995669;28;20553;-65
2023/01/01 02:01:01;;;;;;;3.80;3.60;;;14.10;99.90;;;;;;4995181;28;20252;-66
2023/01/01 02:03:48;;;;;;;4.50;4.10;;;14.20;99.90;;;;;;4997272;28;20168;-66
2023/01/01 02:06:14;;;;;;;4.17;3.97;;;14.30;99.90;;;;;;5014864;28;20267;-65
2023/01/01 02:08:39;;;;;;;4.20;4.00;;;14.30;99.90;;;;;;5015166;28;20192;-65
2023/01/01 02:11:05;;;;;;;4.93;4.70;;;14.40;99.90;;;;;;5014415;28;20211;-64
2023/01/01 02:13:31;;;;;;;6.27;4.70;;;14.40;99.90;;;;;;5014894;28;20196;-66
2023/01/01 02:16:12;;;;;;;5.30;4.30;;;14.50;99.90;;;;;;5014651;28;20231;-65
2023/01/01 02:18:49;;;;;;;4.47;4.17;;;14.50;99.90;;;;;;5014874;28;20572;-66
2023/01/01 02:21:18;;;;;;;4.17;3.97;;;14.50;99.90;;;;;;5014082;28;20176;-66
2023/01/01 02:23:45;;;;;;;11.80;4.90;;;14.60;99.90;;;;;;5014426;28;20231;-66
2023/01/01 02:26:24;;;;;;;4.30;4.00;;;14.70;99.90;;;;;;5014989;28;20196;-66
2023/01/01 02:29:12;;;;;;;4.10;3.90;;;14.70;99.90;;;;;;5014951;28;20217;-65
2023/01/01 02:31:54;;;;;;;11.40;3.90;;;14.80;99.90;;;;;;5013862;28;20275;-65
2023/01/01 02:34:24;;;;;;;3.93;3.70;;;14.80;99.90;;;;;;4994955;28;20212;-65
2023/01/01 02:36:53;;;;;;;3.73;3.53;;;14.80;99.90;;;;;;5004809;28;20630;-65
2023/01/01 02:39:23;;;;;;;3.60;3.30;;;14.80;99.90;;;;;;5014370;28;20168;-65
2023/01/01 02:41:53;;;;;;;4.17;3.80;;;14.80;99.90;;;;;;5014473;28;20176;-65
2023/01/01 02:44:21;;;;;;;5.23;4.00;;;14.80;99.90;;;;;;5014310;28;20430;-65
2023/01/01 02:46:47;;;;;;;4.17;3.73;;;14.80;99.90;;;;;;5014291;28;20176;-66
2023/01/01 02:49:13;;;;;;;4.10;3.80;;;14.80;99.90;;;;;;5014008;28;20552;-65
2023/01/01 02:52:01;;;;;;;4.07;3.87;;;14.80;99.90;;;;;;5013798;28;20183;-65
2023/01/01 02:54:51;;;;;;;5.83;3.90;;;14.80;99.90;;;;;;5013213;28;20215;-66
2023/01/01 02:57:29;;;;;;;4.40;4.00;;;14.80;99.90;;;;;;5014151;28;20706;-65
2023/01/01 03:03:07;;;;;;;5.87;3.97;;;14.70;99.90;;;;;;5012359;28;20716;-65
2023/01/01 03:09:02;;;;;;;4.00;3.60;;;14.70;99.90;;;;;;5013788;28;20314;-65
2023/01/01 03:11:50;;;;;;;7.50;7.13;;;14.80;99.90;;;;;;5013430;28;20180;-65
2023/01/01 03:14:43;;;;;;;3.70;3.50;;;14.80;99.90;;;;;;5013869;28;20216;-66
2023/01/01 03:17:16;;;;;;;3.90;3.70;;;14.80;99.90;;;;;;5013536;28;20210;-66
2023/01/01 03:19:44;;;;;;;5.23;3.77;;;14.80;99.90;;;;;;5013140;28;20540;-65
2023/01/01 03:22:12;;;;;;;4.50;3.90;;;14.80;99.90;;;;;;5013375;28;20238;-66
2023/01/01 03:24:46;;;;;;;3.70;3.50;;;14.80;99.90;;;;;;5013709;28;20630;-66
2023/01/01 03:27:26;;;;;;;3.63;3.43;;;14.80;99.90;;;;;;5013206;28;20183;-66
2023/01/01 03:29:54;;;;;;;4.47;4.00;;;14.80;99.90;;;;;;5012877;28;20192;-65
2023/01/01 03:35:19;;;;;;;4.10;3.90;;;14.80;99.90;;;;;;5012893;28;20609;-65
2023/01/01 03:37:48;;;;;;;6.80;3.90;;;14.80;99.90;;;;;;5013129;28;20184;-65
2023/01/01 03:40:16;;;;;;;4.57;4.27;;;14.80;99.90;;;;;;5012933;28;20184;-66
2023/01/01 03:42:47;;;;;;;4.77;4.30;;;14.80;99.90;;;;;;5013096;28;20239;-64
2023/01/01 03:45:18;;;;;;;4.30;3.90;;;14.80;99.90;;;;;;5012927;28;20196;-66
2023/01/01 03:47:45;;;;;;;3.80;3.60;;;14.80;99.90;;;;;;5012959;28;20180;-65
2023/01/01 03:50:11;;;;;;;3.80;3.60;;;14.80;99.90;;;;;;5012804;28;20191;-66
2023/01/01 03:52:56;;;;;;;5.30;4.00;;;14.80;99.90;;;;;;5012987;28;20179;-66
2023/01/01 03:55:40;;;;;;;4.40;4.00;;;14.80;99.90;;;;;;5000717;28;20232;-66
2023/01/01 03:58:34;;;;;;;3.93;3.60;;;14.80;99.90;;;;;;4994785;28;20183;-65
2023/01/01 04:01:25;;;;;;;5.30;3.83;;;14.90;99.90;;;;;;5012699;28;20535;-66
2023/01/01 04:03:51;;;;;;;5.53;3.90;;;14.90;99.90;;;;;;5012918;28;20212;-66
2023/01/01 04:06:17;;;;;;;3.63;3.33;;;14.90;99.90;;;;;;5012804;28;20199;-66
2023/01/01 04:08:45;;;;;;;4.37;3.97;;;14.90;99.90;;;;;;5012950;28;20266;-65
2023/01/01 04:14:02;;;;;;;4.33;4.13;;;14.90;99.90;;;;;;4993061;28;20262;-66
2023/01/01 04:16:28;;;;;;;3.93;3.63;;;14.90;99.90;;;;;;4993103;28;20200;-66
2023/01/01 04:18:53;;;;;;;4.40;4.00;;;14.90;99.90;;;;;;4993056;28;20227;-65
2023/01/01 04:21:19;;;;;;;4.40;4.03;;;14.90;99.90;;;;;;4992636;28;20181;-66
2023/01/01 04:23:44;;;;;;;4.17;3.87;;;14.90;99.90;;;;;;4996791;28;20646;-66
2023/01/01 04:26:14;;;;;;;3.97;3.77;;;14.90;99.90;;;;;;5012093;28;20219;-66
2023/01/01 04:28:41;;;;;;;4.10;3.90;;;14.90;99.90;;;;;;5012411;28;20651;-66
2023/01/01 04:31:07;;;;;;;3.60;3.40;;;14.90;99.90;;;;;;5011841;28;20188;-66
2023/01/01 04:33:33;;;;;;;5.80;3.47;;;15.00;99.90;;;;;;5011984;28;20302;-67
2023/01/01 04:36:08;;;;;;;4.33;4.03;;;15.00;99.90;;;;;;5012195;28;20295;-66
2023/01/01 04:38:35;;;;;;;4.33;4.13;;;15.00;99.90;;;;;;5011993;28;20675;-66
2023/01/01 04:41:02;;;;;;;5.00;3.83;;;15.00;99.90;;;;;;5011801;28;20180;-66
2023/01/01 04:43:29;;;;;;;4.07;3.80;;;14.90;99.90;;;;;;5010477;28;20275;-66
2023/01/01 04:46:00;;;;;;;6.77;4.13;;;14.90;99.90;;;;;;5011915;28;20212;-66
2023/01/01 04:48:27;;;;;;;5.47;3.93;;;14.90;99.90;;;;;;5012020;28;20195;-66
2023/01/01 04:51:01;;;;;;;4.17;3.77;;;14.90;99.90;;;;;;5011858;28;20645;-65
2023/01/01 04:53:33;;;;;;;4.27;3.70;;;14.90;99.90;;;;;;5011666;28;20249;-66
2023/01/01 04:56:12;;;;;;;6.40;4.37;;;14.80;99.90;;;;;;5010511;28;20669;-66
2023/01/01 04:58:40;;;;;;;3.80;3.50;;;14.90;99.90;;;;;;5010413;28;20180;-66
2023/01/01 05:01:07;;;;;;;4.30;3.97;;;14.80;99.90;;;;;;5011282;28;20241;-64
2023/01/01 05:03:33;;;;;;;4.03;3.70;;;14.80;99.90;;;;;;5011855;28;20195;-64
2023/01/01 05:06:03;;;;;;;4.17;3.93;;;14.80;99.90;;;;;;5011950;28;20577;-65
2023/01/01 05:08:34;;;;;;;4.50;4.10;;;14.80;99.90;;;;;;5011682;28;20207;-65
2023/01/01 05:11:05;;;;;;;4.27;3.73;;;14.80;99.90;;;;;;5011152;28;20192;-64
2023/01/01 05:13:30;;;;;;;6.73;3.97;;;14.70;99.90;;;;;;5011661;28;20563;-64
2023/01/01 05:15:56;;;;;;;4.10;3.50;;;14.60;99.90;;;;;;5011575;28;20212;-64
2023/01/01 05:18:22;;;;;;;6.03;4.27;;;14.50;99.90;;;;;;5011264;28;20271;-65
2023/01/01 05:20:47;;;;;;;4.90;4.50;;;14.40;99.90;;;;;;5011364;28;20255;-65
2023/01/01 05:23:16;;;;;;;4.80;4.50;;;14.40;99.90;;;;;;5011392;28;20180;-65
2023/01/01 05:25:42;;;;;;;4.37;4.07;;;14.20;99.90;;;;;;5011199;28;20693;-65
2023/01/01 05:28:08;;;;;;;4.30;3.90;;;14.10;99.90;;;;;;5010305;28;20176;-65
2023/01/01 05:30:37;;;;;;;4.47;4.17;;;14.00;99.90;;;;;;5011372;28;20661;-65
2023/01/01 05:33:03;;;;;;;3.97;3.77;;;13.90;99.90;;;;;;5011472;28;20192;-64
2023/01/01 05:35:28;;;;;;;3.90;3.70;;;13.90;99.90;;;;;;5011365;28;20294;-64
2023/01/01 05:37:54;;;;;;;3.93;3.73;;;13.80;99.90;;;;;;5011326;28;20665;-65
2023/01/01 05:40:21;;;;;;;5.63;3.90;;;13.90;99.90;;;;;;5011123;28;20180;-65
2023/01/01 05:42:47;;;;;;;4.07;3.87;;;13.90;99.90;;;;;;5011330;28;20176;-64
2023/01/01 05:45:12;;;;;;;4.40;4.10;;;13.90;99.90;;;;;;5011316;28;20208;-65
2023/01/01 05:47:38;;;;;;;3.97;3.77;;;13.90;99.90;;;;;;5011474;28;20190;-65
2023/01/01 05:50:04;;;;;;;4.73;4.10;;;14.00;99.90;;;;;;5011313;28;20188;-64
2023/01/01 05:52:30;;;;;;;6.13;4.23;;;14.00;99.90;;;;;;5011274;28;20191;-64
2023/01/01 05:54:57;;;;;;;4.20;3.90;;;14.00;99.90;;;;;;5004332;28;20221;-64
2023/01/01 05:57:23;;;;;;;4.03;3.83;;;14.10;99.90;;;;;;4991654;28;20176;-64
2023/01/01 05:59:48;;;;;;;4.13;3.80;;;14.10;99.90;;;;;;5004742;28;20251;-64
2023/01/01 06:02:14;;;;;;;4.27;3.97;;;14.20;99.90;;;;;;5011226;28;20172;-65
2023/01/01 06:04:40;;;;;;;4.67;4.20;;;14.20;99.90;;;;;;5010039;28;20204;-65
2023/01/01 06:07:05;;;;;;;4.30;4.03;;;14.30;99.90;;;;;;5011245;28;20180;-64
2023/01/01 06:09:31;;;;;;;4.10;3.70;;;14.30;99.90;;;;;;5011367;28;20596;-65
2023/01/01 06:11:56;;;;;;;4.57;4.27;;;14.30;99.90;;;;;;4998423;28;20183;-64
2023/01/01 06:14:22;;;;;;;4.80;4.40;;;14.30;99.90;;;;;;4991530;28;20209;-65
2023/01/01 06:16:47;;;;;;;4.20;4.00;;;14.30;99.90;;;;;;4991735;28;20173;-65
2023/01/01 06:19:13;;;;;;;4.37;3.97;;;14.40;99.90;;;;;;4991222;28;20177;-65
2023/01/01 06:21:39;;;;;;;4.57;4.27;;;14.40;99.90;;;;;;4991654;28;20173;-65
2023/01/01 06:24:05;;;;;;;7.20;4.67;;;14.40;99.90;;;;;;4999057;28;20184;-64
2023/01/01 06:26:32;;;;;;;4.73;4.23;;;14.50;99.90;;;;;;5011144;28;20201;-65
2023/01/01 06:28:59;;;;;;;5.23;4.03;;;14.50;99.90;;;;;;5011556;28;20188;-64
2023/01/01 06:31:26;;;;;;;4.03;3.80;;;14.50;99.90;;;;;;5014605;28;20199;-64
2023/01/01 06:33:51;;;;;;;4.47;4.17;;;14.50;99.90;;;;;;5014287;28;20287;-64
2023/01/01 06:36:19;;;;;;;5.57;5.20;;;14.60;99.90;;;;;;5014635;28;20257;-64
2023/01/01 06:38:48;;;;;;;4.00;3.80;;;14.60;99.90;;;;;;5014672;28;20172;-64
2023/01/01 06:41:17;;;;;;;4.13;3.90;;;14.60;99.90;;;;;;5013833;28;20183;-65
2023/01/01 06:43:43;;;;;;;3.80;3.60;;;14.60;99.90;;;;;;5014256;28;20183;-65
2023/01/01 06:46:26;;;;;;;4.90;4.20;;;14.70;99.90;;;;;;5014380;28;20204;-65
2023/01/01 06:48:54;;;;;;;3.80;3.60;;;14.70;99.90;;;;;;5014558;28;20180;-65
2023/01/01 06:51:29;;;;;;;4.73;4.33;;;14.70;99.90;;;;;;5013418;28;20175;-65
2023/01/01 06:53:57;;;;;;;4.77;4.53;;;14.70;99.90;;;;;;5014093;28;20202;-65
2023/01/01 06:56:23;;;;;;;4.77;4.40;;;14.80;99.90;;;;;;5013859;28;20187;-65
2023/01/01 06:58:49;;;;;;;4.60;4.30;;;14.80;99.90;;;;;;5014168;28;20642;-64
2023/01/01 07:01:17;;;;;;;5.13;4.57;;;14.80;99.90;;;;;;5013504;28;20188;-65
2023/01/01 07:03:43;;;;;;;4.50;4.20;;;14.80;99.90;;;;;;5013893;28;20272;-65
2023/01/01 07:06:10;;;;;;;4.37;4.10;;;14.80;99.90;;;;;;5013660;28;20204;-64
2023/01/01 07:08:36;;;;;;;5.00;4.60;;;14.90;99.90;;;;;;5013906;28;20579;-65
2023/01/01 07:11:02;;;;;;;4.10;3.70;;;14.80;99.90;;;;;;5013574;28;20184;-64
2023/01/01 07:13:29;;;;;;;6.40;4.00;;;14.80;99.90;;;;;;5013322;28;20191;-65
2023/01/01 07:15:55;;;;;;;4.17;3.97;;;14.80;99.90;;;;;;5013754;28;20204;-64
2023/01/01 07:18:22;;;;;;;5.97;4.40;;;14.80;99.90;;;;;;5013598;28;20187;-65
2023/01/01 07:20:54;;;;;;;6.23;4.60;;;14.80;99.90;;;;;;5013532;28;20180;-65
2023/01/01 07:23:19;;;;;;;4.40;4.03;;;14.80;99.90;;;;;;5013213;28;20694;-64
2023/01/01 07:25:48;;;;;;;8.03;4.23;;;14.70;99.90;;;;;;5036610;23;20230;-65
2023/01/01 07:28:13;;;;;;;7.07;4.10;;;14.70;99.90;;;;;;5013580;28;20263;-66
2023/01/01 07:30:39;;;;;;;5.17;4.63;;;14.70;99.90;;;;;;5013256;28;20267;-66
2023/01/01 07:33:05;;;;;;;4.13;3.93;;;14.70;99.90;;;;;;5012920;28;20176;-66
2023/01/01 07:35:30;;;;;;;4.57;4.27;;;14.70;99.90;;;;;;5009159;28;20200;-66
2023/01/01 07:37:56;;;;;;;4.37;4.17;;;14.70;99.90;;;;;;5013272;28;20196;-66
2023/01/01 07:40:21;;;;;;;5.13;4.63;;;14.70;99.90;;;;;;5012346;28;20191;-65
2023/01/01 07:42:47;;;;;;;5.90;4.67;;;14.70;99.90;;;;;;5013504;28;20230;-65
2023/01/01 07:45:13;;;;;;;4.57;4.27;;;14.60;99.90;;;;;;5013021;28;20192;-65
2023/01/01 07:47:38;;;;;;;5.27;4.60;;;14.60;99.90;;;;;;5012306;28;20629;-66
2023/01/01 07:50:05;;;;;;;5.13;4.73;;;14.50;99.90;;;;;;5011231;28;20180;-66
2023/01/01 07:52:30;;;;;;;5.20;4.70;;;14.50;99.90;;;;;;5009652;28;20183;-66
2023/01/01 07:54:56;;;;;;;4.50;4.30;;;14.40;99.90;;;;;;5003284;28;20352;-65
2023/01/01 07:57:22;;;;;;;4.83;4.37;;;14.40;99.90;;;;;;5006313;28;20187;-66
2023/01/01 07:59:47;;;;;;;7.17;4.57;;;14.40;99.90;;;;;;5012785;28;20547;-65
2023/01/01 08:02:13;;;;;;;9.73;5.80;;;14.40;99.90;;;;;;5013214;28;20183;-66
2023/01/01 08:04:38;;;;;;;5.23;4.93;;;14.50;99.90;;;;;;5013517;28;20245;-65
2023/01/01 08:07:04;;;;;;;5.20;4.90;;;14.50;99.90;;;;;;5012878;28;20184;-66
2023/01/01 08:09:30;;;;;;;10.83;5.10;;;14.60;99.90;;;;;;5012309;28;20282;-65
2023/01/01 08:11:57;;;;;;;4.70;4.50;;;14.60;99.90;;;;;;5012910;28;20180;-66
2023/01/01 08:14:24;;;;;;;5.07;4.77;;;14.60;99.90;;;;;;5012659;28;20227;-66
2023/01/01 08:16:50;;;;;;;4.33;4.13;;;14.60;99.90;;;;;;5012984;28;20231;-66
2023/01/01 08:19:15;;;;;;;4.90;4.53;;;14.60;99.90;;;;;;5012130;28;20200;-66
2023/01/01 08:21:41;;;;;;;4.33;4.03;;;14.60;99.90;;;;;;5012952;28;20541;-66
2023/01/01 08:24:06;;;;;;;4.93;4.63;;;14.60;99.90;;;;;;5012372;28;20172;-66
2023/01/01 08:26:34;;;;;;;4.37;3.97;;;14.60;99.90;;;;;;5012759;28;20688;-67
2023/01/01 08:29:05;;;;;;;4.40;4.20;;;14.60;99.90;;;;;;5012355;28;20168;-66
2023/01/01 08:31:31;;;;;;;4.97;4.60;;;14.60;99.90;;;;;;5012619;28;20274;-66
2023/01/01 08:33:57;;;;;;;4.50;4.30;;;14.60;99.90;;;;;;5012647;28;20204;-66
2023/01/01 08:36:22;;;;;;;4.90;4.53;;;14.60;99.90;;;;;;5012828;28;20195;-66
2023/01/01 08:38:48;;;;;;;4.80;4.50;;;14.50;99.90;;;;;;5012635;28;20207;-66
2023/01/01 08:41:13;;;;;;;4.80;4.50;;;14.60;99.90;;;;;;5012571;28;20182;-66
2023/01/01 08:43:39;;;;;;;4.50;4.20;;;14.50;99.90;;;;;;5011544;28;20263;-66
2023/01/01 08:46:05;;;;;;;5.40;4.10;;;14.60;99.90;;;;;;5012967;28;20250;-66
2023/01/01 08:48:30;;;;;;;3.87;3.67;;;14.60;99.90;;;;;;5014820;28;20259;-66
2023/01/01 08:51:00;;;;;;;6.47;3.90;;;14.60;99.90;;;;;;4994175;28;20181;-65
2023/01/01 08:53:28;;;;;;;3.83;3.63;;;14.60;99.90;;;;;;5006354;28;20259;-66
2023/01/01 08:55:56;;;;;;;4.00;3.80;;;14.60;99.90;;;;;;5012501;28;20196;-66
2023/01/01 08:58:22;;;;;;;3.93;3.73;;;14.70;99.90;;;;;;5012569;28;20164;-66
2023/01/01 09:00:47;;;;;;;4.53;4.10;;;14.60;99.90;;;;;;5012826;28;20172;-66
2023/01/01 09:03:13;;;;;;;4.57;4.17;;;14.60;99.90;;;;;;5012010;28;20207;-66
2023/01/01 09:05:44;;;;;;;4.90;4.50;;;14.60;99.90;;;;;;5012730;28;20188;-66
2023/01/01 09:08:13;;;;;;;6.00;4.43;;;14.60;99.90;;;;;;5012729;28;20198;-66
2023/01/01 09:10:38;;;;;;;4.20;3.80;;;14.60;99.90;;;;;;5012226;28;20185;-66
2023/01/01 09:13:04;;;;;;;4.67;4.37;;;14.60;99.90;;;;;;5012379;28;20188;-65
2023/01/01 09:15:30;;;;;;;9.33;4.00;;;14.60;99.90;;;;;;5010861;28;20211;-65
2023/01/01 09:17:56;;;;;;;4.60;4.27;;;14.60;99.90;;;;;;5006963;28;20188;-66
2023/01/01 09:20:21;;;;;;;4.20;3.90;;;14.60;99.90;;;;;;5012612;28;20664;-66
2023/01/01 09:22:47;;;;;;;7.40;4.47;;;14.60;99.90;;;;;;5012255;28;20251;-66
2023/01/01 09:25:13;;;;;;;3.83;3.63;;;14.60;99.90;;;;;;5011699;28;20207;-67
2023/01/01 09:27:38;;;;;;;4.67;4.00;;;14.60;99.90;;;;;;5011870;28;20176;-66
2023/01/01 09:30:04;;;;;;;4.57;4.23;;;14.60;99.90;;;;;;5013288;28;20250;-66
2023/01/01 09:32:30;;;;;;;5.90;3.90;;;14.60;99.90;;;;;;5013716;28;20545;-66
2023/01/01 09:34:56;;;;;;;4.17;3.90;;;14.60;99.90;;;;;;5014197;28;20283;-66
2023/01/01 09:37:22;;;;;;;4.27;4.07;;;14.60;99.90;;;;;;5014999;28;20583;-66
2023/01/01 09:39:48;;;;;;;10.10;4.00;;;14.60;99.90;;;;;;5014678;28;20176;-66
2023/01/01 09:42:28;;;;;;;3.63;3.47;;;14.70;99.90;;;;;;5013975;28;20164;-66
2023/01/01 09:45:15;;;;;;;4.83;4.53;;;14.70;99.90;;;;;;5012997;28;20216;-66
2023/01/01 09:47:46;;;;;;;4.30;4.00;;;14.70;99.90;;;;;;5012493;28;20172;-65
2023/01/01 09:50:14;;;;;;;4.07;3.63;;;14.70;99.90;;;;;;5009702;28;20184;-66
2023/01/01 09:52:55;;;;;;;6.57;4.57;;;14.80;99.90;;;;;;4991796;28;20235;-65
2023/01/01 09:55:40;;;;;;;5.40;4.20;;;14.80;99.90;;;;;;4992642;28;20200;-66
2023/01/01 09:58:10;;;;;;;5.77;4.13;;;14.90;99.90;;;;;;5011901;28;20169;-66
2023/01/01 10:00:38;;;;;;;3.50;3.30;;;14.90;99.90;;;;;;5011350;28;20176;-66
2023/01/01 10:03:30;;;;;;;3.90;3.70;;;15.00;99.90;;;;;;5007964;28;20180;-65
2023/01/01 10:06:14;;;;;;;4.47;4.10;;;15.10;99.90;;;;;;5013576;28;20212;-66
2023/01/01 10:08:51;;;;;;;5.47;4.00;;;15.10;99.90;;;;;;5015046;28;20202;-65
2023/01/01 10:11:45;;;;;;;4.50;3.80;;;15.10;99.90;;;;;;5013035;28;20581;-66
2023/01/01 10:14:21;;;;;;;4.53;4.03;;;15.20;99.90;;;;;;5014676;28;20199;-65
2023/01/01 10:16:52;;;;;;;4.27;3.97;;;15.20;99.90;;;;;;5014642;28;20168;-66
2023/01/01 10:19:35;;;;;;;5.87;4.43;;;15.20;99.90;;;;;;5014396;28;20184;-66
2023/01/01 10:22:12;;;;;;;5.20;3.77;;;15.20;99.90;;;;;;5015811;28;20267;-66
2023/01/01 10:24:37;;;;;;;4.43;4.10;;;15.20;99.90;;;;;;5015517;28;20226;-65
2023/01/01 10:27:04;;;;;;;4.30;4.00;;;15.20;99.90;;;;;;5015240;28;20649;-66
2023/01/01 10:29:43;;;;;;;5.00;3.80;;;15.20;99.90;;;;;;5015364;28;20187;-66
2023/01/01 10:32:32;;;;;;;4.03;3.67;;;15.10;99.90;;;;;;5015475;28;20633;-66
2023/01/01 10:35:00;;;;;;;3.87;3.53;;;15.10;99.90;;;;;;5014394;28;20262;-67
2023/01/01 10:37:32;;;;;;;4.10;3.80;;;15.10;99.90;;;;;;5014004;28;20184;-66
2023/01/01 10:39:58;;;;;;;3.93;3.63;;;15.10;99.90;;;;;;5014102;28;20203;-66
2023/01/01 10:42:25;;;;;;;3.87;3.67;;;15.10;99.90;;;;;;5014357;28;20200;-66
2023/01/01 10:44:52;;;;;;;4.13;3.73;;;15.10;99.90;;;;;;5014244;28;20196;-66
2023/01/01 10:47:28;;;;;;;4.43;4.00;;;15.10;99.90;;;;;;5014245;28;20184;-66
2023/01/01 10:49:53;;;;;;;4.10;3.83;;;15.20;99.90;;;;;;5010115;28;20391;-66
2023/01/01 10:52:24;;;;;;;4.20;3.93;;;15.20;99.90;;;;;;5008976;28;20255;-65
2023/01/01 10:54:50;;;;;;;5.47;3.80;;;15.20;99.90;;;;;;5014067;28;20200;-66
2023/01/01 10:57:34;;;;;;;4.30;3.90;;;15.30;99.90;;;;;;5013995;28;20176;-66
2023/01/01 11:00:26;;;;;;;4.30;4.10;;;15.30;99.90;;;;;;5013396;28;20532;-66
2023/01/01 11:03:23;;;;;;;6.00;5.07;;;15.30;99.90;;;;;;5013071;28;20187;-66
2023/01/01 11:06:22;;;;;;;4.87;4.37;;;15.40;99.90;;;;;;5013795;28;20196;-66
2023/01/01 11:08:56;;;;;;;5.17;4.73;;;15.40;99.90;;;;;;5013524;28;20478;-67
2023/01/01 11:11:31;;;;;;;6.63;4.60;;;15.40;99.90;;;;;;5013563;28;20169;-66
2023/01/01 11:13:59;;;;;;;4.37;3.97;;;15.50;99.90;;;;;;5013619;28;20207;-66
2023/01/01 11:16:27;;;;;;;6.60;4.13;;;15.50;99.90;;;;;;5012802;28;20338;-66
2023/01/01 11:19:04;;;;;;;4.50;4.10;;;15.50;99.90;;;;;;5013467;28;20172;-66
2023/01/01 11:21:30;;;;;;;5.37;4.10;;;15.40;99.90;;;;;;5013395;28;20660;-67
2023/01/01 11:24:20;;;;;;;4.40;4.00;;;15.40;99.90;;;;;;5003051;28;20550;-67
2023/01/01 11:26:47;;;;;;;3.87;3.57;;;15.40;99.90;;;;;;5013594;28;20669;-66
2023/01/01 11:29:15;;;;;;;6.37;3.93;;;15.30;99.90;;;;;;5012771;28;20279;-66
2023/01/01 11:31:42;;;;;;;4.03;3.60;;;15.30;99.90;;;;;;5013304;28;20187;-66
2023/01/01 11:34:35;;;;;;;4.37;4.07;;;15.30;99.90;;;;;;5013145;28;20283;-66
2023/01/01 11:37:09;;;;;;;7.53;4.37;;;15.20;99.90;;;;;;5012858;28;20188;-65
2023/01/01 11:39:36;;;;;;;4.63;4.30;;;15.20;99.90;;;;;;5012621;28;20180;-66
2023/01/01 11:42:04;;;;;;;5.50;4.00;;;15.30;99.90;;;;;;5013384;28;20538;-66
2023/01/01 11:44:32;;;;;;;4.33;3.93;;;15.30;99.90;;;;;;5012806;28;20195;-67
2023/01/01 11:46:58;;;;;;;4.50;4.10;;;15.30;99.90;;;;;;5013172;28;20187;-66
2023/01/01 11:49:27;;;;;;;4.90;4.60;;;15.40;99.90;;;;;;5012378;28;20211;-67
2023/01/01 11:51:53;;;;;;;4.47;4.10;;;15.40;99.90;;;;;;5013163;28;20218;-66
2023/01/01 11:54:37;;;;;;;5.07;4.67;;;15.40;99.90;;;;;;5010650;28;20207;-66
2023/01/01 11:57:17;;;;;;;4.30;3.90;;;15.40;99.90;;;;;;5010472;28;20522;-65
2023/01/01 11:59:51;;;;;;;4.07;3.70;;;15.30;99.90;;;;;;5012117;28;20602;-66
2023/01/01 12:02:35;;;;;;;6.77;3.90;;;15.30;99.90;;;;;;5012765;28;20175;-66
2023/01/01 12:05:23;;;;;;;4.37;3.97;;;15.30;99.90;;;;;;5012626;28;20192;-66
2023/01/01 12:07:50;;;;;;;3.80;3.60;;;15.30;99.90;;;;;;5012789;28;20176;-65
2023/01/01 12:10:27;;;;;;;5.20;3.57;;;15.30;99.90;;;;;;5012095;28;20188;-66
2023/01/01 12:13:12;;;;;;;4.33;3.97;;;15.40;99.90;;;;;;5012739;28;20657;-65
2023/01/01 12:15:59;;;;;;;4.57;4.27;;;15.50;99.90;;;;;;5012069;28;20693;-66
2023/01/01 12:18:33;;;;;;;3.77;3.57;;;15.50;99.90;;;;;;5012142;28;20647;-66
2023/01/01 12:21:27;;;;;;;3.77;3.57;;;15.50;99.90;;;;;;5012480;28;20646;-66
2023/01/01 12:23:54;;;;;;;3.90;3.60;;;15.60;99.90;;;;;;5012521;28;20646;-66
2023/01/01 12:26:29;;;;;;;4.53;4.13;;;15.50;99.90;;;;;;5011893;28;20207;-67
2023/01/01 12:29:24;;;;;;;3.97;3.73;;;15.50;99.90;;;;;;5006021;28;20180;-67
2023/01/01 12:32:06;;;;;;;3.90;3.60;;;15.50;99.90;;;;;;5010917;28;20235;-66
2023/01/01 12:35:13;;;;;;;3.87;3.60;;;15.50;99.90;;;;;;5010824;28;20204;-66
2023/01/01 12:37:53;;;;;;;5.40;3.63;;;15.50;99.90;;;;;;4990541;28;20639;-67
2023/01/01 12:40:32;;;;;;;7.27;4.07;;;15.50;99.90;;;;;;5010661;28;20630;-67
2023/01/01 12:43:03;;;;;;;5.37;3.90;;;15.50;99.90;;;;;;5012377;28;20545;-67
2023/01/01 12:45:47;;;;;;;6.67;4.20;;;15.50;99.90;;;;;;5011529;28;20207;-66
2023/01/01 12:48:22;;;;;;;9.03;4.90;;;15.50;99.90;;;;;;5011786;28;20185;-67
2023/01/01 12:51:09;;;;;;;7.87;6.43;;;15.50;99.90;;;;;;5011708;28;20328;-66
2023/01/01 12:53:43;;;;;;;5.47;4.97;;;15.50;99.90;;;;;;5011819;28;20178;-66
2023/01/01 12:56:48;;;;;;;3.93;3.63;;;15.50;99.90;;;;;;5007708;28;20215;-66
2023/01/01 12:59:23;;;;;;;5.23;3.80;;;15.50;99.90;;;;;;5010724;28;20188;-66
2023/01/01 13:01:54;;;;;;;5.43;3.63;;;15.40;99.90;;;;;;5006701;28;20180;-65
2023/01/01 13:04:21;;;;;;;4.20;3.80;;;15.40;99.90;;;;;;5003695;28;20180;-66
2023/01/01 13:06:51;;;;;;;4.00;3.60;;;15.40;99.90;;;;;;5011847;28;20576;-66
2023/01/01 13:09:25;;;;;;;6.63;4.07;;;15.30;99.90;;;;;;5011282;28;20180;-67
2023/01/01 13:12:02;;;;;;;4.17;3.87;;;15.30;99.90;;;;;;5012171;28;20554;-65
2023/01/01 13:14:28;;;;;;;3.80;3.50;;;15.40;99.90;;;;;;5011264;28;20254;-67
2023/01/01 13:16:55;;;;;;;3.70;3.50;;;15.30;99.90;;;;;;5011528;28;20195;-66
2023/01/01 13:19:26;;;;;;;4.23;3.80;;;15.30;99.90;;;;;;5010935;28;20274;-66